Time;durP1;ratioP1;P1;durP2;ratioP2;P2;SDS_P1;SDS_P2;PMS_P1;PMS_P2;Temp;Humidity;BMP_temperature;BMP_pressure;BME280_temperature;BME280_humidity;BME280_pressure;Samples;Min_cycle;Max_cycle;Signal;HPM_P1;HPM_P2
2021/08/13 00:00:44;;;;;;;1.58;1.10;;;18.20;80.50;;;;;;4792203;29;20055;-85
2021/08/13 00:03:10;;;;;;;0.95;0.85;;;18.20;80.60;;;;;;4802561;29;20047;-81
2021/08/13 00:05:36;;;;;;;1.77;1.10;;;18.20;80.60;;;;;;4837363;29;20031;-82
2021/08/13 00:08:02;;;;;;;1.23;1.00;;;18.20;80.70;;;;;;4806262;29;20145;-81
2021/08/13 00:10:27;;;;;;;1.00;0.90;;;18.20;80.70;;;;;;4819816;29;20587;-81
2021/08/13 00:12:53;;;;;;;1.30;1.08;;;18.20;80.70;;;;;;4830356;29;20042;-83
2021/08/13 00:15:19;;;;;;;1.05;0.95;;;18.20;80.70;;;;;;4805975;29;20047;-84
2021/08/13 00:17:44;;;;;;;1.05;0.90;;;18.10;80.70;;;;;;4847320;29;20434;-84
2021/08/13 00:20:11;;;;;;;1.20;1.02;;;18.20;80.80;;;;;;4887191;29;20040;-85
2021/08/13 00:22:39;;;;;;;1.00;0.90;;;18.20;80.80;;;;;;4906919;29;20052;-84
2021/08/13 00:25:05;;;;;;;1.17;0.85;;;18.20;80.90;;;;;;4965047;28;20031;-81
2021/08/13 00:27:31;;;;;;;1.70;1.20;;;18.10;81.00;;;;;;4972882;28;20141;-82
2021/08/13 00:30:14;;;;;;;1.25;1.00;;;18.10;81.00;;;;;;4952403;28;20043;-82
2021/08/13 00:32:40;;;;;;;1.40;1.00;;;18.20;81.10;;;;;;5028973;28;20549;-83
2021/08/13 00:35:06;;;;;;;0.85;0.85;;;18.00;81.60;;;;;;5016578;28;20099;-81
2021/08/13 00:37:32;;;;;;;0.95;0.95;;;18.00;81.10;;;;;;5018358;28;20046;-82
2021/08/13 00:39:58;;;;;;;1.40;1.10;;;18.10;81.20;;;;;;5030350;28;20049;-81
2021/08/13 00:42:24;;;;;;;1.25;1.00;;;18.00;81.20;;;;;;5003605;28;20049;-81
2021/08/13 00:44:50;;;;;;;1.00;0.90;;;18.00;81.30;;;;;;5039692;28;20064;-81
2021/08/13 00:47:16;;;;;;;0.88;0.80;;;18.00;81.30;;;;;;5042169;28;20034;-81
2021/08/13 00:50:00;;;;;;;1.48;1.20;;;18.00;81.40;;;;;;5043931;28;20057;-85
2021/08/13 00:52:38;;;;;;;1.40;1.00;;;17.90;81.40;;;;;;4998313;28;20184;-84
2021/08/13 00:55:10;;;;;;;1.30;1.00;;;17.80;81.40;;;;;;4976015;28;20073;-83
2021/08/13 00:57:37;;;;;;;1.05;0.90;;;17.90;81.50;;;;;;4943074;29;20055;-83
2021/08/13 01:00:04;;;;;;;1.45;1.00;;;17.80;81.50;;;;;;4912860;29;20051;-84
2021/08/13 01:02:45;;;;;;;1.70;1.10;;;18.00;82.30;;;;;;4944036;29;20080;-86
2021/08/13 01:05:14;;;;;;;;;;;17.80;81.70;;;;;;4926836;29;20035;-81
2021/08/13 01:07:40;;;;;;;0.98;0.88;;;17.80;81.70;;;;;;4914768;29;20359;-82
2021/08/13 01:10:06;;;;;;;0.95;0.90;;;17.70;81.60;;;;;;4914575;29;20055;-83
2021/08/13 01:12:51;;;;;;;1.05;0.93;;;17.70;81.70;;;;;;4932583;29;20044;-84
2021/08/13 01:15:19;;;;;;;1.38;1.02;;;17.70;81.80;;;;;;4927834;29;20055;-84
2021/08/13 01:18:08;;;;;;;1.25;0.77;;;17.60;81.80;;;;;;4968878;28;20055;-84
2021/08/13 01:21:13;;;;;;;0.90;0.90;;;17.70;81.90;;;;;;4997330;28;20060;-82
2021/08/13 01:23:51;;;;;;;1.15;1.00;;;17.70;81.90;;;;;;5016794;28;20118;-83
2021/08/13 01:26:19;;;;;;;1.08;0.82;;;17.60;81.70;;;;;;4970623;28;20099;-80
2021/08/13 01:29:03;;;;;;;1.10;1.00;;;17.70;81.70;;;;;;5026437;28;20402;-82
2021/08/13 01:31:38;;;;;;;1.52;1.00;;;17.70;81.70;;;;;;5030469;28;20052;-80
2021/08/13 01:34:06;;;;;;;1.08;0.90;;;17.70;81.60;;;;;;5041773;28;20092;-80
2021/08/13 01:36:33;;;;;;;0.98;0.90;;;17.70;81.70;;;;;;5024256;28;20037;-80
2021/08/13 01:39:02;;;;;;;1.42;1.05;;;17.80;81.70;;;;;;5023165;28;20045;-79
2021/08/13 01:41:32;;;;;;;0.50;0.50;;;17.80;81.70;;;;;;5038826;28;20109;-79
2021/08/13 01:43:59;;;;;;;1.10;1.00;;;17.80;81.70;;;;;;5056212;28;20034;-80
2021/08/13 01:46:26;;;;;;;2.17;1.05;;;17.80;81.70;;;;;;5021767;28;20017;-79
2021/08/13 01:48:52;;;;;;;1.05;0.80;;;17.80;81.70;;;;;;5037532;28;20041;-80
2021/08/13 01:51:18;;;;;;;1.75;0.80;;;17.80;81.70;;;;;;5054827;28;20049;-79
2021/08/13 01:53:47;;;;;;;1.17;0.90;;;17.80;81.70;;;;;;5002134;28;20029;-80
2021/08/13 01:56:12;;;;;;;1.10;0.90;;;17.80;81.70;;;;;;5017507;28;20084;-79
2021/08/13 01:58:40;;;;;;;0.85;0.85;;;17.80;81.80;;;;;;5032520;28;20048;-79
2021/08/13 02:01:06;;;;;;;1.05;0.95;;;17.90;81.90;;;;;;5030318;28;20057;-79
2021/08/13 02:03:32;;;;;;;1.20;1.00;;;17.80;81.90;;;;;;5014998;28;20151;-80
2021/08/13 02:05:59;;;;;;;1.02;0.88;;;17.80;82.00;;;;;;5049802;28;20038;-80
2021/08/13 02:08:26;;;;;;;1.35;1.00;;;17.80;82.00;;;;;;5048536;28;20045;-79
2021/08/13 02:10:54;;;;;;;1.20;1.10;;;17.80;82.10;;;;;;5028285;28;20021;-80
2021/08/13 02:13:20;;;;;;;1.42;1.15;;;17.70;82.10;;;;;;5027548;28;20159;-80
2021/08/13 02:15:55;;;;;;;1.90;1.20;;;17.70;82.20;;;;;;5027707;28;20121;-80
2021/08/13 02:18:24;;;;;;;1.65;0.90;;;17.70;82.30;;;;;;5027835;28;20042;-80
2021/08/13 02:20:55;;;;;;;0.90;0.85;;;17.70;82.40;;;;;;5028984;28;20034;-80
2021/08/13 02:23:22;;;;;;;1.08;0.95;;;17.70;82.50;;;;;;5027563;28;20045;-80
2021/08/13 02:25:48;;;;;;;1.33;1.10;;;17.60;82.50;;;;;;5026897;28;20049;-80
2021/08/13 02:28:14;;;;;;;0.90;0.90;;;17.60;82.50;;;;;;5010144;28;20041;-80
2021/08/13 02:30:40;;;;;;;1.13;0.93;;;17.60;82.60;;;;;;5026231;28;20105;-80
2021/08/13 02:33:06;;;;;;;0.80;0.80;;;17.60;82.70;;;;;;5026902;28;20030;-80
2021/08/13 02:35:33;;;;;;;1.42;1.10;;;17.60;82.70;;;;;;5065572;28;20025;-80
2021/08/13 02:38:09;;;;;;;1.35;1.10;;;17.50;82.70;;;;;;5022470;28;20080;-79
2021/08/13 02:40:41;;;;;;;1.05;0.93;;;17.50;82.80;;;;;;5065736;28;20508;-80
2021/08/13 02:43:18;;;;;;;0.93;0.82;;;17.50;82.80;;;;;;5034012;28;20029;-80
2021/08/13 02:45:46;;;;;;;1.20;1.00;;;17.50;82.80;;;;;;5044732;28;20106;-80
2021/08/13 02:48:14;;;;;;;1.10;1.00;;;17.50;82.80;;;;;;5027783;28;20064;-79
2021/08/13 02:50:41;;;;;;;1.40;1.00;;;17.50;82.80;;;;;;5048953;28;20049;-79
2021/08/13 02:53:10;;;;;;;1.10;0.90;;;17.50;82.80;;;;;;5048908;28;20501;-78
2021/08/13 02:55:51;;;;;;;1.85;1.35;;;17.50;82.80;;;;;;5061089;28;20044;-80
2021/08/13 02:58:19;;;;;;;;;;;17.50;82.90;;;;;;5065692;28;20128;-80
2021/08/13 03:00:49;;;;;;;1.05;0.90;;;17.50;82.80;;;;;;5066583;28;20308;-79
2021/08/13 03:03:17;;;;;;;0.65;0.65;;;17.40;82.70;;;;;;5065254;28;20068;-79
2021/08/13 03:05:48;;;;;;;1.20;1.10;;;17.50;82.90;;;;;;5046275;28;20104;-79
2021/08/13 03:08:14;;;;;;;1.10;1.00;;;17.40;82.90;;;;;;5064557;28;20045;-80
2021/08/13 03:10:40;;;;;;;0.80;0.80;;;17.40;82.90;;;;;;5045578;28;20077;-79
2021/08/13 03:13:07;;;;;;;1.17;0.80;;;17.30;83.00;;;;;;5044167;28;20063;-80
2021/08/13 03:15:33;;;;;;;1.38;1.00;;;17.30;83.00;;;;;;5065231;28;20049;-80
2021/08/13 03:18:01;;;;;;;1.00;0.90;;;17.40;83.10;;;;;;5066295;28;20090;-80
2021/08/13 03:20:27;;;;;;;0.90;0.88;;;17.30;83.10;;;;;;5066565;28;20136;-80
2021/08/13 03:22:53;;;;;;;1.02;0.93;;;17.30;83.30;;;;;;5039795;28;20052;-80
2021/08/13 03:25:19;;;;;;;1.42;1.00;;;17.30;83.30;;;;;;5046314;28;20044;-80
2021/08/13 03:27:45;;;;;;;1.35;1.10;;;17.30;83.40;;;;;;5045261;28;20037;-80
2021/08/13 03:30:12;;;;;;;1.67;1.02;;;17.30;83.40;;;;;;5063524;28;20545;-80
2021/08/13 03:32:39;;;;;;;0.90;0.90;;;17.20;83.40;;;;;;5040555;28;20380;-80
2021/08/13 03:35:05;;;;;;;1.67;1.10;;;17.20;83.40;;;;;;5045005;28;20045;-80
2021/08/13 03:37:31;;;;;;;1.17;1.00;;;17.20;83.50;;;;;;5027574;28;20048;-80
2021/08/13 03:39:57;;;;;;;1.77;1.10;;;17.20;83.50;;;;;;5062895;28;20044;-80
2021/08/13 03:42:23;;;;;;;1.38;1.00;;;17.20;83.50;;;;;;5010969;28;20041;-80
2021/08/13 03:44:49;;;;;;;1.42;1.13;;;17.10;83.50;;;;;;5025601;28;20041;-80
2021/08/13 03:47:15;;;;;;;2.10;1.20;;;17.10;83.60;;;;;;5063262;28;20111;-80
2021/08/13 03:49:41;;;;;;;1.73;1.20;;;17.10;83.70;;;;;;5042335;28;20061;-80
2021/08/13 03:52:06;;;;;;;2.13;1.23;;;17.10;83.70;;;;;;5063028;28;20041;-80
2021/08/13 03:54:32;;;;;;;1.73;1.10;;;17.10;83.80;;;;;;5041689;28;20080;-80
2021/08/13 03:56:58;;;;;;;1.38;1.00;;;17.10;83.80;;;;;;5037851;28;20041;-80
2021/08/13 03:59:24;;;;;;;1.38;1.17;;;17.10;83.80;;;;;;5004169;28;20026;-80
2021/08/13 04:01:49;;;;;;;1.23;1.13;;;17.10;83.80;;;;;;5041360;28;20489;-80
2021/08/13 04:04:15;;;;;;;1.02;0.93;;;17.10;83.80;;;;;;5039357;28;20041;-80
2021/08/13 04:06:41;;;;;;;0.80;0.80;;;17.00;83.70;;;;;;5021714;28;20025;-81
2021/08/13 04:09:06;;;;;;;1.00;0.93;;;17.00;83.80;;;;;;5020356;28;20045;-81
2021/08/13 04:11:32;;;;;;;1.10;1.00;;;17.10;83.80;;;;;;5022617;28;20052;-81
2021/08/13 04:13:58;;;;;;;0.95;0.88;;;17.10;83.80;;;;;;5020382;28;20037;-80
2021/08/13 04:16:23;;;;;;;1.38;0.98;;;17.10;83.80;;;;;;5020984;28;20045;-80
2021/08/13 04:18:49;;;;;;;0.98;0.88;;;17.10;83.80;;;;;;5038469;28;20121;-80
2021/08/13 04:21:15;;;;;;;1.13;0.80;;;17.10;83.80;;;;;;5038150;28;20375;-80
2021/08/13 04:23:41;;;;;;;1.42;1.17;;;17.00;83.70;;;;;;5003391;28;20485;-80
2021/08/13 04:26:06;;;;;;;0.77;0.77;;;17.10;83.70;;;;;;5019507;28;20059;-80
2021/08/13 04:28:32;;;;;;;1.95;1.27;;;17.10;83.80;;;;;;5018986;28;21513;-80
2021/08/13 04:30:58;;;;;;;1.05;0.90;;;17.10;83.90;;;;;;5016125;28;20041;-81
2021/08/13 04:33:24;;;;;;;1.33;1.00;;;17.20;83.90;;;;;;5018994;28;20037;-80
2021/08/13 04:35:49;;;;;;;1.17;1.00;;;17.10;83.80;;;;;;5017912;28;20417;-80
2021/08/13 04:38:15;;;;;;;0.80;0.80;;;17.10;83.80;;;;;;5002151;28;20033;-80
2021/08/13 04:40:42;;;;;;;1.30;1.00;;;17.10;83.80;;;;;;4985239;28;20037;-80
2021/08/13 04:43:08;;;;;;;1.00;0.90;;;17.10;83.80;;;;;;5036762;28;20042;-80
2021/08/13 04:45:34;;;;;;;1.35;1.05;;;17.20;83.90;;;;;;5036185;28;20045;-80
2021/08/13 04:47:59;;;;;;;1.38;0.90;;;17.20;83.80;;;;;;5016914;28;20045;-80
2021/08/13 04:50:25;;;;;;;1.25;1.10;;;17.20;83.70;;;;;;4999871;28;20045;-80
2021/08/13 04:52:51;;;;;;;0.82;0.82;;;17.30;83.80;;;;;;5035410;28;20520;-80
2021/08/13 04:55:22;;;;;;;0.98;0.82;;;17.30;83.70;;;;;;5035084;28;20087;-80
2021/08/13 04:57:48;;;;;;;;;;;17.20;83.70;;;;;;5017674;28;20045;-80
2021/08/13 05:00:15;;;;;;;1.02;0.80;;;17.30;83.60;;;;;;5034467;28;19983;-79
2021/08/13 05:02:41;;;;;;;1.40;1.20;;;17.30;83.50;;;;;;5000690;28;20053;-79
2021/08/13 05:05:08;;;;;;;1.10;0.85;;;17.30;83.50;;;;;;5017782;28;20042;-79
2021/08/13 05:07:34;;;;;;;0.73;0.73;;;17.30;83.60;;;;;;5017750;28;20033;-79
2021/08/13 05:10:13;;;;;;;2.17;1.15;;;17.40;83.60;;;;;;4985690;28;20037;-79
2021/08/13 05:12:40;;;;;;;1.13;1.02;;;17.30;83.60;;;;;;5020148;28;20896;-80
2021/08/13 05:15:08;;;;;;;1.30;1.08;;;17.40;83.70;;;;;;5025429;28;20058;-80
2021/08/13 05:17:34;;;;;;;1.30;1.15;;;17.40;83.70;;;;;;5016587;28;20080;-81
2021/08/13 05:20:00;;;;;;;0.98;0.88;;;17.40;83.80;;;;;;4998197;28;20040;-80
2021/08/13 05:22:26;;;;;;;1.67;1.15;;;17.40;83.70;;;;;;4999510;28;20093;-81
2021/08/13 05:24:52;;;;;;;1.48;1.30;;;17.50;83.80;;;;;;5034128;28;20042;-81
2021/08/13 05:27:18;;;;;;;1.33;0.90;;;17.40;83.70;;;;;;5032800;28;20036;-80
2021/08/13 05:29:43;;;;;;;1.65;1.23;;;17.50;83.70;;;;;;5047636;28;20029;-81
2021/08/13 05:32:10;;;;;;;1.60;1.20;;;17.50;83.60;;;;;;5041576;28;20568;-82
2021/08/13 05:34:35;;;;;;;1.30;1.13;;;17.50;83.70;;;;;;5013542;28;20112;-82
2021/08/13 05:37:01;;;;;;;2.92;1.30;;;17.50;83.80;;;;;;4995758;28;20132;-81
2021/08/13 05:39:27;;;;;;;2.47;1.38;;;17.50;83.80;;;;;;4977736;28;20084;-81
2021/08/13 05:41:52;;;;;;;1.58;1.20;;;17.50;83.80;;;;;;4977767;28;20050;-81
2021/08/13 05:44:18;;;;;;;1.42;1.15;;;17.50;83.80;;;;;;4994342;28;20084;-81
2021/08/13 05:46:44;;;;;;;2.17;1.40;;;17.60;83.80;;;;;;5008894;28;20042;-81
2021/08/13 05:49:10;;;;;;;1.10;1.00;;;17.70;83.60;;;;;;4992958;28;20049;-81
2021/08/13 05:51:36;;;;;;;1.27;1.13;;;17.80;83.50;;;;;;4976586;28;20038;-82
2021/08/13 05:54:01;;;;;;;1.20;1.02;;;17.80;83.40;;;;;;4975316;28;20038;-81
2021/08/13 05:56:27;;;;;;;1.05;0.82;;;17.90;83.60;;;;;;4976657;28;20177;-81
2021/08/13 05:58:59;;;;;;;1.70;1.08;;;17.90;83.30;;;;;;4976794;28;20528;-81
2021/08/13 06:01:25;;;;;;;1.00;0.90;;;17.90;83.20;;;;;;4977314;28;20050;-81
2021/08/13 06:03:51;;;;;;;1.15;1.02;;;18.10;83.10;;;;;;4960609;28;20076;-81
2021/08/13 06:06:16;;;;;;;1.63;1.10;;;18.10;83.10;;;;;;4979759;28;20026;-80
2021/08/13 06:08:42;;;;;;;1.02;0.93;;;18.20;83.10;;;;;;4979778;28;20054;-80
2021/08/13 06:11:08;;;;;;;1.50;0.90;;;18.20;82.90;;;;;;4977622;28;20034;-81
2021/08/13 06:13:34;;;;;;;1.63;1.23;;;18.20;82.90;;;;;;4976495;28;20046;-81
2021/08/13 06:15:59;;;;;;;1.48;1.20;;;18.30;82.90;;;;;;4993330;28;20209;-81
2021/08/13 06:18:25;;;;;;;1.33;1.10;;;18.30;82.90;;;;;;5010015;28;20450;-80
2021/08/13 06:20:51;;;;;;;1.83;1.17;;;18.30;82.90;;;;;;5013239;28;20536;-81
2021/08/13 06:23:17;;;;;;;1.85;1.30;;;18.50;82.90;;;;;;4978983;28;20402;-81
2021/08/13 06:25:42;;;;;;;2.10;1.35;;;18.40;82.70;;;;;;4984973;28;20137;-82
2021/08/13 06:28:08;;;;;;;1.90;1.30;;;18.50;82.70;;;;;;5034567;28;20033;-80
2021/08/13 06:30:34;;;;;;;1.60;1.30;;;18.50;82.60;;;;;;5014343;28;20038;-80
2021/08/13 06:33:00;;;;;;;2.70;1.45;;;18.60;82.60;;;;;;4999009;28;20077;-81
2021/08/13 06:35:27;;;;;;;1.52;1.15;;;18.60;82.60;;;;;;5000118;28;20041;-81
2021/08/13 06:37:54;;;;;;;1.50;1.20;;;18.60;82.60;;;;;;5016294;28;20099;-81
2021/08/13 06:40:21;;;;;;;2.55;1.33;;;18.70;82.60;;;;;;4982357;28;20088;-81
2021/08/13 06:42:48;;;;;;;2.00;1.20;;;18.80;82.60;;;;;;4996473;28;20504;-81
2021/08/13 06:45:16;;;;;;;1.45;1.10;;;18.70;82.50;;;;;;4996402;28;20034;-81
2021/08/13 06:47:42;;;;;;;1.90;1.17;;;18.70;82.60;;;;;;4996540;28;20037;-80
2021/08/13 06:50:09;;;;;;;1.20;1.00;;;18.80;82.60;;;;;;4964387;28;20052;-80
2021/08/13 06:52:35;;;;;;;2.50;1.40;;;18.80;82.60;;;;;;4999769;28;20037;-80
2021/08/13 06:55:01;;;;;;;1.98;1.20;;;18.90;82.60;;;;;;5033728;28;20473;-80
2021/08/13 06:57:27;;;;;;;1.33;1.10;;;18.90;82.50;;;;;;4983709;28;20124;-80
2021/08/13 06:59:53;;;;;;;1.00;0.90;;;18.90;82.40;;;;;;4981766;28;20113;-81
2021/08/13 07:02:18;;;;;;;1.33;1.15;;;18.90;82.40;;;;;;5033726;28;20511;-80
2021/08/13 07:04:44;;;;;;;2.28;1.20;;;19.00;82.40;;;;;;4989086;28;20042;-80
2021/08/13 07:07:10;;;;;;;1.98;1.40;;;19.00;82.30;;;;;;5013847;28;20048;-80
2021/08/13 07:09:35;;;;;;;2.67;1.58;;;19.10;82.20;;;;;;4979758;28;20042;-79
2021/08/13 07:12:01;;;;;;;2.65;1.50;;;19.10;82.20;;;;;;4979861;28;20052;-80
2021/08/13 07:14:27;;;;;;;2.03;1.42;;;19.20;82.20;;;;;;5003738;28;20076;-79
2021/08/13 07:16:53;;;;;;;2.50;1.58;;;19.20;82.10;;;;;;4998986;28;20147;-79
2021/08/13 07:19:18;;;;;;;1.77;1.40;;;19.30;82.00;;;;;;4998988;28;20061;-79
2021/08/13 07:21:44;;;;;;;2.60;1.48;;;19.30;81.80;;;;;;4999755;28;20046;-79
2021/08/13 07:24:10;;;;;;;2.50;1.65;;;19.40;81.70;;;;;;5033186;28;20111;-80
2021/08/13 07:26:36;;;;;;;2.00;1.42;;;19.50;81.70;;;;;;5015607;28;20060;-81
2021/08/13 07:29:02;;;;;;;2.28;1.58;;;19.50;81.60;;;;;;4999711;28;20049;-79
2021/08/13 07:31:27;;;;;;;2.53;1.40;;;19.60;81.60;;;;;;5015624;28;20041;-79
2021/08/13 07:33:53;;;;;;;2.42;1.45;;;19.50;81.60;;;;;;4999012;28;20208;-80
2021/08/13 07:36:24;;;;;;;2.15;1.40;;;19.60;81.80;;;;;;5033384;28;20045;-80
2021/08/13 07:38:51;;;;;;;2.50;1.67;;;19.60;81.80;;;;;;5002303;28;20091;-81
2021/08/13 07:41:16;;;;;;;2.20;1.30;;;19.60;81.70;;;;;;4979661;28;20072;-80
2021/08/13 07:43:42;;;;;;;1.70;1.20;;;19.60;81.70;;;;;;4982707;28;20077;-79
2021/08/13 07:46:09;;;;;;;3.05;1.88;;;19.70;81.70;;;;;;4998771;28;20038;-79
2021/08/13 07:48:35;;;;;;;2.65;1.70;;;19.70;81.50;;;;;;5015279;28;20171;-77
2021/08/13 07:51:00;;;;;;;2.53;1.65;;;19.80;81.50;;;;;;5003960;28;20069;-80
2021/08/13 07:53:26;;;;;;;2.60;1.38;;;19.70;81.50;;;;;;4984968;28;20033;-81
2021/08/13 07:55:52;;;;;;;2.95;1.60;;;19.80;81.50;;;;;;5016770;28;20052;-80
2021/08/13 07:58:17;;;;;;;2.40;1.63;;;19.80;81.40;;;;;;4999028;28;20033;-80
2021/08/13 08:00:43;;;;;;;2.72;1.75;;;19.90;81.20;;;;;;5013938;28;20470;-84
2021/08/13 08:03:09;;;;;;;3.13;1.80;;;20.00;81.10;;;;;;4962799;28;20049;-81
2021/08/13 08:05:35;;;;;;;3.45;2.00;;;20.10;81.20;;;;;;5011495;28;20092;-80
2021/08/13 08:08:01;;;;;;;3.35;1.73;;;20.10;81.10;;;;;;4982285;28;20398;-81
2021/08/13 08:10:27;;;;;;;3.03;1.70;;;20.10;81.00;;;;;;4997435;28;20128;-82
2021/08/13 08:12:52;;;;;;;2.40;1.70;;;20.20;81.00;;;;;;4997141;28;20096;-80
2021/08/13 08:15:18;;;;;;;2.55;1.77;;;20.20;80.90;;;;;;4979626;28;20042;-80
2021/08/13 08:17:44;;;;;;;2.90;2.05;;;20.40;80.80;;;;;;5012680;28;20528;-81
2021/08/13 08:20:10;;;;;;;2.78;1.70;;;20.50;80.60;;;;;;4978969;28;20050;-80
2021/08/13 08:22:36;;;;;;;3.25;1.90;;;20.60;80.30;;;;;;4995189;28;20112;-80
2021/08/13 08:25:04;;;;;;;2.40;1.60;;;20.80;80.10;;;;;;4979148;28;20038;-80
2021/08/13 08:27:29;;;;;;;2.90;1.60;;;21.00;79.80;;;;;;4978944;28;20099;-78
2021/08/13 08:29:55;;;;;;;1.30;1.20;;;21.20;79.40;;;;;;4986357;28;20091;-78
2021/08/13 08:32:21;;;;;;;2.22;1.60;;;21.30;79.20;;;;;;4997156;28;20535;-79
2021/08/13 08:34:47;;;;;;;1.52;1.23;;;21.40;79.00;;;;;;4998474;28;20398;-81
2021/08/13 08:37:13;;;;;;;2.53;1.52;;;21.50;79.00;;;;;;5004288;28;20038;-80
2021/08/13 08:39:40;;;;;;;1.50;1.27;;;21.50;79.10;;;;;;5013311;28;20038;-80
2021/08/13 08:42:12;;;;;;;2.47;1.55;;;21.40;79.10;;;;;;4984467;28;20106;-81
2021/08/13 08:44:38;;;;;;;1.70;1.40;;;21.60;79.20;;;;;;5019910;28;20038;-81
2021/08/13 08:47:05;;;;;;;1.40;1.08;;;21.70;79.10;;;;;;4981855;28;20065;-81
2021/08/13 08:49:32;;;;;;;1.30;1.05;;;21.80;78.90;;;;;;5002324;28;20073;-80
2021/08/13 08:51:58;;;;;;;2.03;1.42;;;21.90;78.70;;;;;;4986080;28;20493;-82
2021/08/13 08:54:26;;;;;;;2.22;1.50;;;21.90;78.60;;;;;;4996988;28;20076;-80
2021/08/13 08:56:53;;;;;;;3.15;1.50;;;22.00;78.70;;;;;;5015672;28;20049;-79
2021/08/13 08:59:22;;;;;;;3.72;1.63;;;21.90;78.40;;;;;;4981801;28;20041;-83
2021/08/13 09:01:47;;;;;;;2.78;1.80;;;21.90;78.60;;;;;;4967330;28;20046;-79
2021/08/13 09:04:14;;;;;;;2.50;1.50;;;21.90;78.90;;;;;;4979397;28;20073;-80
2021/08/13 09:06:41;;;;;;;2.22;1.38;;;22.00;78.80;;;;;;4980677;28;20104;-80
2021/08/13 09:09:08;;;;;;;2.08;1.50;;;22.10;78.60;;;;;;5019526;28;20096;-79
2021/08/13 09:11:36;;;;;;;1.80;1.35;;;22.10;78.60;;;;;;5001896;28;20084;-80
2021/08/13 09:14:05;;;;;;;1.50;1.35;;;22.20;78.30;;;;;;4964228;28;20088;-78
2021/08/13 09:16:31;;;;;;;1.52;1.30;;;22.30;78.40;;;;;;5023647;28;20073;-79
2021/08/13 09:19:03;;;;;;;1.83;1.30;;;22.30;78.30;;;;;;5020762;28;20045;-79
2021/08/13 09:21:31;;;;;;;1.88;1.30;;;22.50;78.20;;;;;;4999938;28;20048;-78
2021/08/13 09:24:00;;;;;;;1.52;1.30;;;22.50;77.90;;;;;;5021722;28;20451;-80
2021/08/13 09:26:27;;;;;;;1.95;1.60;;;22.60;77.80;;;;;;5004314;28;20092;-81
2021/08/13 09:28:55;;;;;;;1.95;1.40;;;22.50;77.70;;;;;;5022225;28;20465;-79
2021/08/13 09:31:28;;;;;;;2.58;1.40;;;22.50;77.90;;;;;;5037563;28;20088;-80
2021/08/13 09:33:56;;;;;;;1.67;1.27;;;22.50;78.10;;;;;;5021597;28;20121;-82
2021/08/13 09:36:25;;;;;;;1.95;1.30;;;22.50;78.20;;;;;;5003555;28;20056;-80
2021/08/13 09:39:04;;;;;;;1.83;1.23;;;22.40;78.00;;;;;;5022740;28;20054;-82
2021/08/13 09:41:44;;;;;;;1.92;1.40;;;22.40;78.10;;;;;;5005404;28;20119;-79
2021/08/13 09:44:09;;;;;;;1.70;1.20;;;22.30;78.10;;;;;;5015942;28;20034;-77
2021/08/13 09:46:35;;;;;;;2.35;1.40;;;22.40;78.30;;;;;;4998861;28;20056;-78
2021/08/13 09:49:16;;;;;;;2.30;1.50;;;22.40;78.00;;;;;;4981982;28;20067;-79
2021/08/13 09:51:43;;;;;;;1.88;1.30;;;22.40;77.90;;;;;;5034054;28;20033;-77
2021/08/13 09:54:10;;;;;;;2.72;1.58;;;22.40;77.80;;;;;;4985176;28;20045;-77
2021/08/13 09:56:38;;;;;;;1.95;1.17;;;22.40;77.60;;;;;;5003251;28;20057;-78
2021/08/13 09:59:07;;;;;;;1.30;1.20;;;22.40;77.60;;;;;;4964891;28;20437;-78
2021/08/13 10:01:38;;;;;;;2.10;1.23;;;22.50;77.50;;;;;;5015132;28;20077;-77
2021/08/13 10:04:05;;;;;;;1.42;1.20;;;22.50;77.20;;;;;;5015122;28;20056;-78
2021/08/13 10:06:31;;;;;;;2.13;1.40;;;22.60;77.20;;;;;;4999936;28;20046;-78
2021/08/13 10:08:57;;;;;;;1.23;1.00;;;22.50;77.20;;;;;;5002477;28;20048;-78
2021/08/13 10:11:23;;;;;;;1.42;1.20;;;22.50;77.20;;;;;;5000388;28;20488;-78
2021/08/13 10:13:49;;;;;;;1.48;1.00;;;22.50;77.20;;;;;;4983868;28;20450;-78
2021/08/13 10:16:25;;;;;;;2.25;1.23;;;22.50;76.80;;;;;;5015632;28;20073;-77
2021/08/13 10:18:55;;;;;;;1.02;0.93;;;22.50;76.80;;;;;;5035394;28;20041;-78
2021/08/13 10:21:23;;;;;;;1.77;1.20;;;22.50;76.80;;;;;;5016252;28;20041;-78
2021/08/13 10:23:51;;;;;;;3.05;1.30;;;22.60;76.40;;;;;;5016707;28;20037;-78
2021/08/13 10:26:19;;;;;;;1.77;1.40;;;22.70;76.10;;;;;;5020318;28;20022;-78
2021/08/13 10:28:48;;;;;;;3.47;1.40;;;22.70;75.90;;;;;;5016189;28;20033;-77
2021/08/13 10:31:18;;;;;;;2.10;1.35;;;22.60;75.80;;;;;;5009173;28;20073;-80
2021/08/13 10:33:45;;;;;;;2.55;1.38;;;22.70;75.50;;;;;;5004046;28;20046;-80
2021/08/13 10:36:16;;;;;;;2.70;1.67;;;22.80;75.20;;;;;;5017326;28;20049;-81
2021/08/13 10:38:42;;;;;;;2.97;1.65;;;22.70;74.80;;;;;;5031906;28;20045;-81
2021/08/13 10:41:09;;;;;;;2.83;1.55;;;22.60;75.10;;;;;;5033732;28;20485;-81
2021/08/13 10:43:39;;;;;;;2.35;1.48;;;22.60;75.30;;;;;;5016811;28;20090;-80
2021/08/13 10:46:08;;;;;;;1.75;1.33;;;22.60;75.10;;;;;;5012381;28;20042;-81
2021/08/13 10:48:37;;;;;;;2.40;1.40;;;22.70;74.80;;;;;;5034503;28;20070;-82
2021/08/13 10:51:03;;;;;;;2.03;1.40;;;22.60;74.80;;;;;;5015942;28;20041;-81
2021/08/13 10:53:32;;;;;;;2.15;1.20;;;22.70;74.90;;;;;;5016163;28;20043;-81
2021/08/13 10:56:00;;;;;;;1.85;1.35;;;22.80;74.50;;;;;;5015945;28;20119;-79
2021/08/13 10:58:43;;;;;;;2.97;1.50;;;22.80;74.00;;;;;;4999643;28;20053;-80
2021/08/13 11:01:19;;;;;;;2.72;1.65;;;22.80;73.90;;;;;;5016142;28;20037;-79
2021/08/13 11:04:09;;;;;;;2.35;1.42;;;22.80;73.70;;;;;;5033460;28;20030;-79
2021/08/13 11:06:44;;;;;;;3.20;1.67;;;22.70;73.60;;;;;;4998137;28;20049;-79
2021/08/13 11:09:11;;;;;;;2.72;1.45;;;22.60;73.60;;;;;;5033693;28;20041;-79
2021/08/13 11:12:02;;;;;;;2.10;1.20;;;22.70;73.70;;;;;;4999860;28;20042;-80
2021/08/13 11:14:32;;;;;;;2.05;1.30;;;22.80;73.50;;;;;;5015989;28;20083;-81
2021/08/13 11:16:58;;;;;;;2.70;1.15;;;22.90;73.20;;;;;;5015921;28;20038;-80
2021/08/13 11:19:25;;;;;;;2.42;1.33;;;23.00;72.90;;;;;;5033551;28;20056;-80
2021/08/13 11:21:54;;;;;;;1.73;1.30;;;23.10;72.50;;;;;;5015800;28;20045;-79
2021/08/13 11:24:22;;;;;;;1.30;1.00;;;23.30;72.30;;;;;;5033647;28;20061;-79
2021/08/13 11:27:09;;;;;;;2.13;1.30;;;23.40;71.90;;;;;;4982738;28;20117;-81
2021/08/13 11:29:38;;;;;;;1.70;1.13;;;23.50;71.50;;;;;;4996802;28;20034;-80
2021/08/13 11:32:25;;;;;;;1.45;1.10;;;23.50;71.40;;;;;;4996655;28;20041;-79
2021/08/13 11:35:13;;;;;;;1.85;1.05;;;23.40;71.50;;;;;;5015569;28;20521;-80
2021/08/13 11:37:45;;;;;;;1.73;1.10;;;23.40;71.70;;;;;;5032029;28;20095;-80
2021/08/13 11:40:39;;;;;;;1.63;1.05;;;23.40;71.70;;;;;;5033189;28;20100;-79
2021/08/13 11:43:05;;;;;;;1.27;0.77;;;23.40;71.50;;;;;;5000483;28;20486;-80
2021/08/13 11:45:36;;;;;;;1.25;1.00;;;23.50;71.60;;;;;;4979933;28;20375;-80
2021/08/13 11:48:04;;;;;;;1.55;0.90;;;23.40;71.40;;;;;;4995917;28;20867;-80
2021/08/13 11:50:31;;;;;;;2.00;1.15;;;23.60;71.50;;;;;;4979315;28;20485;-79
2021/08/13 11:52:57;;;;;;;1.42;1.10;;;23.60;71.30;;;;;;4995913;28;20089;-81
2021/08/13 11:55:26;;;;;;;1.63;1.02;;;23.50;71.30;;;;;;5030874;28;20497;-80
2021/08/13 11:57:55;;;;;;;1.70;1.00;;;23.50;72.10;;;;;;4967013;28;20563;-79
2021/08/13 12:00:27;;;;;;;0.88;0.88;;;23.50;71.50;;;;;;5015077;28;20033;-79
2021/08/13 12:03:00;;;;;;;1.77;0.98;;;23.50;71.50;;;;;;4980637;28;20129;-79
2021/08/13 12:05:29;;;;;;;1.38;1.00;;;23.60;71.40;;;;;;4999736;28;20388;-79
2021/08/13 12:07:58;;;;;;;1.60;0.88;;;23.60;71.30;;;;;;4980534;28;20026;-79
2021/08/13 12:10:24;;;;;;;1.50;1.00;;;23.60;71.80;;;;;;4962579;28;20478;-79
2021/08/13 12:12:50;;;;;;;2.55;1.02;;;23.60;71.00;;;;;;4996790;28;20100;-81
2021/08/13 12:15:30;;;;;;;1.33;1.00;;;23.60;71.00;;;;;;4997355;28;20490;-80
2021/08/13 12:17:57;;;;;;;1.23;0.90;;;23.60;71.00;;;;;;4995706;28;20096;-80
2021/08/13 12:20:23;;;;;;;1.05;0.77;;;23.60;70.90;;;;;;4995862;28;20042;-79
2021/08/13 12:22:49;;;;;;;1.33;0.57;;;23.70;70.60;;;;;;4980234;28;20115;-80
2021/08/13 12:25:16;;;;;;;1.63;0.82;;;23.70;70.40;;;;;;4996258;28;20469;-80
2021/08/13 12:27:43;;;;;;;1.63;0.80;;;23.80;70.30;;;;;;4981307;28;20048;-81
2021/08/13 12:30:21;;;;;;;1.23;0.80;;;23.90;70.10;;;;;;5014627;28;20041;-84
2021/08/13 12:32:47;;;;;;;0.73;0.70;;;24.00;70.00;;;;;;4982688;28;20486;-81
2021/08/13 12:35:14;;;;;;;0.80;0.80;;;24.00;69.80;;;;;;4981377;28;20096;-79
2021/08/13 12:37:41;;;;;;;1.15;0.70;;;24.00;69.70;;;;;;5000443;28;20053;-81
2021/08/13 12:40:10;;;;;;;2.38;0.95;;;24.00;69.80;;;;;;4995778;28;20068;-79
2021/08/13 12:42:38;;;;;;;1.42;1.00;;;24.00;69.90;;;;;;5014100;28;20607;-81
2021/08/13 12:45:08;;;;;;;1.27;0.80;;;24.00;69.80;;;;;;4995333;28;20126;-82
2021/08/13 12:47:34;;;;;;;3.00;0.95;;;24.10;69.50;;;;;;5031412;28;20061;-84
2021/08/13 12:50:01;;;;;;;1.30;0.90;;;24.10;69.40;;;;;;4994339;28;20061;-82
2021/08/13 12:52:27;;;;;;;0.65;0.60;;;24.00;69.40;;;;;;4996806;28;20564;-83